sensor_id;sensor_type;location;lat;lon;timestamp;P1;durP1;ratioP1;P2;durP2;ratioP2
67564;SDS011;54393;53.556;49.216;2023-08-07T00:01:15;1.50;;;1.40;;
67564;SDS011;54393;53.556;49.216;2023-08-07T00:03:41;2.67;;;1.12;;
67564;SDS011;54393;53.556;49.216;2023-08-07T00:06:08;2.85;;;1.40;;
67564;SDS011;54393;53.556;49.216;2023-08-07T00:08:34;2.45;;;1.50;;
67564;SDS011;54393;53.556;49.216;2023-08-07T00:11:07;1.45;;;1.33;;
67564;SDS011;54393;53.556;49.216;2023-08-07T00:13:34;1.80;;;1.42;;
67564;SDS011;54393;53.556;49.216;2023-08-07T00:16:00;1.48;;;1.37;;
67564;SDS011;54393;53.556;49.216;2023-08-07T00:18:27;1.25;;;1.15;;
67564;SDS011;54393;53.556;49.216;2023-08-07T00:20:54;1.40;;;1.30;;
67564;SDS011;54393;53.556;49.216;2023-08-07T00:23:20;2.37;;;1.50;;
67564;SDS011;54393;53.556;49.216;2023-08-07T00:25:47;1.23;;;1.10;;
67564;SDS011;54393;53.556;49.216;2023-08-07T00:28:13;1.35;;;1.25;;
67564;SDS011;54393;53.556;49.216;2023-08-07T00:30:40;1.52;;;1.20;;
67564;SDS011;54393;53.556;49.216;2023-08-07T00:33:06;2.30;;;1.42;;
67564;SDS011;54393;53.556;49.216;2023-08-07T00:35:33;1.60;;;1.50;;
67564;SDS011;54393;53.556;49.216;2023-08-07T00:37:59;1.80;;;1.70;;
67564;SDS011;54393;53.556;49.216;2023-08-07T00:40:25;1.40;;;1.30;;
67564;SDS011;54393;53.556;49.216;2023-08-07T00:42:52;1.17;;;1.10;;
67564;SDS011;54393;53.556;49.216;2023-08-07T00:45:18;1.55;;;1.35;;
67564;SDS011;54393;53.556;49.216;2023-08-07T00:47:46;1.92;;;1.40;;
67564;SDS011;54393;53.556;49.216;2023-08-07T00:50:12;1.40;;;1.30;;
67564;SDS011;54393;53.556;49.216;2023-08-07T00:52:39;1.83;;;1.00;;
67564;SDS011;54393;53.556;49.216;2023-08-07T00:55:06;1.83;;;1.17;;
67564;SDS011;54393;53.556;49.216;2023-08-07T00:57:32;1.33;;;1.23;;
67564;SDS011;54393;53.556;49.216;2023-08-07T00:59:59;1.40;;;1.30;;
67564;SDS011;54393;53.556;49.216;2023-08-07T01:02:26;1.60;;;1.50;;
67564;SDS011;54393;53.556;49.216;2023-08-07T01:04:52;1.23;;;1.12;;
67564;SDS011;54393;53.556;49.216;2023-08-07T01:07:19;2.25;;;1.08;;
67564;SDS011;54393;53.556;49.216;2023-08-07T01:09:45;1.80;;;1.70;;
67564;SDS011;54393;53.556;49.216;2023-08-07T01:14:49;1.35;;;1.25;;
67564;SDS011;54393;53.556;49.216;2023-08-07T01:17:26;4.40;;;1.67;;
67564;SDS011;54393;53.556;49.216;2023-08-07T01:19:53;1.33;;;1.20;;
67564;SDS011;54393;53.556;49.216;2023-08-07T01:22:19;1.30;;;1.20;;
67564;SDS011;54393;53.556;49.216;2023-08-07T01:24:47;1.50;;;1.40;;
67564;SDS011;54393;53.556;49.216;2023-08-07T01:29:49;2.25;;;0.93;;
67564;SDS011;54393;53.556;49.216;2023-08-07T01:35:29;0.90;;;0.90;;
67564;SDS011;54393;53.556;49.216;2023-08-07T01:37:58;1.45;;;1.00;;
67564;SDS011;54393;53.556;49.216;2023-08-07T01:40:26;2.03;;;1.17;;
67564;SDS011;54393;53.556;49.216;2023-08-07T01:42:53;2.60;;;1.70;;
67564;SDS011;54393;53.556;49.216;2023-08-07T01:45:26;0.98;;;0.98;;
67564;SDS011;54393;53.556;49.216;2023-08-07T01:47:53;1.20;;;1.10;;
67564;SDS011;54393;53.556;49.216;2023-08-07T01:50:20;1.48;;;1.25;;
67564;SDS011;54393;53.556;49.216;2023-08-07T01:52:48;1.05;;;0.98;;
67564;SDS011;54393;53.556;49.216;2023-08-07T01:55:18;1.30;;;1.20;;
67564;SDS011;54393;53.556;49.216;2023-08-07T01:57:45;1.02;;;1.02;;
67564;SDS011;54393;53.556;49.216;2023-08-07T02:00:11;1.17;;;1.15;;
67564;SDS011;54393;53.556;49.216;2023-08-07T02:02:38;1.90;;;1.15;;
67564;SDS011;54393;53.556;49.216;2023-08-07T02:05:05;2.58;;;1.00;;
67564;SDS011;54393;53.556;49.216;2023-08-07T02:07:31;1.23;;;1.17;;
67564;SDS011;54393;53.556;49.216;2023-08-07T02:09:58;3.58;;;1.10;;
67564;SDS011;54393;53.556;49.216;2023-08-07T02:12:24;0.90;;;0.90;;
67564;SDS011;54393;53.556;49.216;2023-08-07T02:14:52;1.75;;;1.20;;
67564;SDS011;54393;53.556;49.216;2023-08-07T02:17:20;1.35;;;1.25;;
67564;SDS011;54393;53.556;49.216;2023-08-07T02:19:48;1.37;;;1.27;;
67564;SDS011;54393;53.556;49.216;2023-08-07T02:22:14;1.67;;;1.23;;
67564;SDS011;54393;53.556;49.216;2023-08-07T02:24:41;1.92;;;1.30;;
67564;SDS011;54393;53.556;49.216;2023-08-07T02:27:07;1.35;;;1.08;;
67564;SDS011;54393;53.556;49.216;2023-08-07T02:29:34;1.77;;;1.15;;
67564;SDS011;54393;53.556;49.216;2023-08-07T02:32:01;1.23;;;1.10;;
67564;SDS011;54393;53.556;49.216;2023-08-07T02:34:31;1.60;;;1.50;;
67564;SDS011;54393;53.556;49.216;2023-08-07T02:36:58;1.35;;;1.25;;
67564;SDS011;54393;53.556;49.216;2023-08-07T02:39:25;1.17;;;1.17;;
67564;SDS011;54393;53.556;49.216;2023-08-07T02:41:51;2.03;;;1.20;;
67564;SDS011;54393;53.556;49.216;2023-08-07T02:44:17;1.52;;;1.33;;
67564;SDS011;54393;53.556;49.216;2023-08-07T02:46:45;1.83;;;1.02;;
67564;SDS011;54393;53.556;49.216;2023-08-07T02:49:12;3.60;;;1.58;;
67564;SDS011;54393;53.556;49.216;2023-08-07T02:51:38;1.30;;;1.20;;
67564;SDS011;54393;53.556;49.216;2023-08-07T02:54:04;1.37;;;1.25;;
67564;SDS011;54393;53.556;49.216;2023-08-07T02:56:31;1.15;;;1.15;;
67564;SDS011;54393;53.556;49.216;2023-08-07T02:58:58;1.00;;;0.90;;
67564;SDS011;54393;53.556;49.216;2023-08-07T03:01:26;1.33;;;1.25;;
67564;SDS011;54393;53.556;49.216;2023-08-07T03:03:53;2.50;;;1.50;;
67564;SDS011;54393;53.556;49.216;2023-08-07T03:06:20;1.25;;;1.20;;
67564;SDS011;54393;53.556;49.216;2023-08-07T03:08:46;1.40;;;1.30;;
67564;SDS011;54393;53.556;49.216;2023-08-07T03:11:13;1.45;;;1.15;;
67564;SDS011;54393;53.556;49.216;2023-08-07T03:13:39;1.05;;;1.05;;
67564;SDS011;54393;53.556;49.216;2023-08-07T03:16:07;0.98;;;0.98;;
67564;SDS011;54393;53.556;49.216;2023-08-07T03:18:34;1.25;;;1.17;;
67564;SDS011;54393;53.556;49.216;2023-08-07T03:21:00;1.42;;;1.30;;
67564;SDS011;54393;53.556;49.216;2023-08-07T03:23:27;1.60;;;1.42;;
67564;SDS011;54393;53.556;49.216;2023-08-07T03:26:07;1.77;;;1.25;;
67564;SDS011;54393;53.556;49.216;2023-08-07T03:28:35;2.20;;;1.27;;
67564;SDS011;54393;53.556;49.216;2023-08-07T03:31:02;1.40;;;1.30;;
67564;SDS011;54393;53.556;49.216;2023-08-07T03:33:29;1.58;;;1.48;;
67564;SDS011;54393;53.556;49.216;2023-08-07T03:35:55;2.00;;;1.48;;
67564;SDS011;54393;53.556;49.216;2023-08-07T03:38:22;1.80;;;1.48;;
67564;SDS011;54393;53.556;49.216;2023-08-07T03:40:48;1.62;;;1.50;;
67564;SDS011;54393;53.556;49.216;2023-08-07T03:43:15;2.30;;;1.42;;
67564;SDS011;54393;53.556;49.216;2023-08-07T03:45:41;1.62;;;1.52;;
67564;SDS011;54393;53.556;49.216;2023-08-07T03:48:07;2.22;;;1.25;;
67564;SDS011;54393;53.556;49.216;2023-08-07T03:50:34;1.60;;;1.50;;
67564;SDS011;54393;53.556;49.216;2023-08-07T03:53:02;1.60;;;1.50;;
67564;SDS011;54393;53.556;49.216;2023-08-07T03:55:30;2.62;;;1.20;;
67564;SDS011;54393;53.556;49.216;2023-08-07T03:57:56;5.12;;;1.50;;
67564;SDS011;54393;53.556;49.216;2023-08-07T04:00:22;1.95;;;1.75;;
67564;SDS011;54393;53.556;49.216;2023-08-07T04:02:49;1.17;;;1.10;;
67564;SDS011;54393;53.556;49.216;2023-08-07T04:05:15;1.67;;;1.58;;
67564;SDS011;54393;53.556;49.216;2023-08-07T04:07:42;2.20;;;1.42;;
67564;SDS011;54393;53.556;49.216;2023-08-07T04:10:08;1.50;;;1.40;;
67564;SDS011;54393;53.556;49.216;2023-08-07T04:12:35;1.60;;;1.40;;
67564;SDS011;54393;53.556;49.216;2023-08-07T04:15:01;1.40;;;1.30;;
67564;SDS011;54393;53.556;49.216;2023-08-07T04:17:28;2.58;;;1.77;;
67564;SDS011;54393;53.556;49.216;2023-08-07T04:19:54;1.70;;;1.60;;
67564;SDS011;54393;53.556;49.216;2023-08-07T04:22:20;1.50;;;1.40;;
67564;SDS011;54393;53.556;49.216;2023-08-07T04:24:47;2.33;;;1.70;;
67564;SDS011;54393;53.556;49.216;2023-08-07T04:27:13;1.87;;;1.40;;
67564;SDS011;54393;53.556;49.216;2023-08-07T04:29:40;1.50;;;1.37;;
67564;SDS011;54393;53.556;49.216;2023-08-07T04:32:06;2.25;;;1.27;;
67564;SDS011;54393;53.556;49.216;2023-08-07T04:34:33;2.08;;;1.87;;
67564;SDS011;54393;53.556;49.216;2023-08-07T04:37:00;1.85;;;1.40;;
67564;SDS011;54393;53.556;49.216;2023-08-07T04:39:26;2.05;;;1.60;;
67564;SDS011;54393;53.556;49.216;2023-08-07T04:41:53;1.70;;;1.60;;
67564;SDS011;54393;53.556;49.216;2023-08-07T04:44:19;2.90;;;1.55;;
67564;SDS011;54393;53.556;49.216;2023-08-07T04:46:46;1.70;;;1.60;;
67564;SDS011;54393;53.556;49.216;2023-08-07T04:49:12;1.60;;;1.50;;
67564;SDS011;54393;53.556;49.216;2023-08-07T04:51:39;1.80;;;1.50;;
67564;SDS011;54393;53.556;49.216;2023-08-07T04:54:05;1.60;;;1.30;;
67564;SDS011;54393;53.556;49.216;2023-08-07T04:56:32;2.85;;;1.25;;
67564;SDS011;54393;53.556;49.216;2023-08-07T04:58:58;3.03;;;1.60;;
67564;SDS011;54393;53.556;49.216;2023-08-07T05:01:25;1.75;;;1.48;;
67564;SDS011;54393;53.556;49.216;2023-08-07T05:03:52;2.30;;;1.33;;
67564;SDS011;54393;53.556;49.216;2023-08-07T05:06:18;1.98;;;1.77;;
67564;SDS011;54393;53.556;49.216;2023-08-07T05:08:45;3.55;;;1.48;;
67564;SDS011;54393;53.556;49.216;2023-08-07T05:11:11;2.35;;;1.37;;
67564;SDS011;54393;53.556;49.216;2023-08-07T05:13:38;1.95;;;1.30;;
67564;SDS011;54393;53.556;49.216;2023-08-07T05:16:04;1.70;;;1.60;;
67564;SDS011;54393;53.556;49.216;2023-08-07T05:18:30;1.20;;;1.20;;
67564;SDS011;54393;53.556;49.216;2023-08-07T05:20:57;1.75;;;1.65;;
67564;SDS011;54393;53.556;49.216;2023-08-07T05:23:23;1.67;;;1.40;;
67564;SDS011;54393;53.556;49.216;2023-08-07T05:25:50;1.90;;;1.80;;
67564;SDS011;54393;53.556;49.216;2023-08-07T05:28:16;2.60;;;1.65;;
67564;SDS011;54393;53.556;49.216;2023-08-07T05:30:43;1.55;;;1.30;;
67564;SDS011;54393;53.556;49.216;2023-08-07T05:33:09;4.22;;;1.33;;
67564;SDS011;54393;53.556;49.216;2023-08-07T05:35:37;1.60;;;1.50;;
67564;SDS011;54393;53.556;49.216;2023-08-07T05:38:04;1.40;;;1.30;;
67564;SDS011;54393;53.556;49.216;2023-08-07T05:40:30;3.42;;;1.40;;
67564;SDS011;54393;53.556;49.216;2023-08-07T05:42:57;3.58;;;1.35;;
67564;SDS011;54393;53.556;49.216;2023-08-07T05:45:23;1.90;;;1.45;;
67564;SDS011;54393;53.556;49.216;2023-08-07T05:47:50;2.58;;;1.70;;
67564;SDS011;54393;53.556;49.216;2023-08-07T05:50:16;1.83;;;1.25;;
67564;SDS011;54393;53.556;49.216;2023-08-07T05:52:43;1.17;;;1.15;;
67564;SDS011;54393;53.556;49.216;2023-08-07T05:55:09;5.55;;;1.52;;
67564;SDS011;54393;53.556;49.216;2023-08-07T05:57:36;2.00;;;1.30;;
67564;SDS011;54393;53.556;49.216;2023-08-07T06:00:02;2.47;;;1.30;;
67564;SDS011;54393;53.556;49.216;2023-08-07T06:02:29;4.37;;;1.58;;
67564;SDS011;54393;53.556;49.216;2023-08-07T06:04:56;3.28;;;1.50;;
67564;SDS011;54393;53.556;49.216;2023-08-07T06:07:22;2.10;;;1.40;;
67564;SDS011;54393;53.556;49.216;2023-08-07T06:09:49;2.40;;;1.27;;
67564;SDS011;54393;53.556;49.216;2023-08-07T06:12:15;2.37;;;1.37;;
67564;SDS011;54393;53.556;49.216;2023-08-07T06:14:41;3.80;;;1.50;;
67564;SDS011;54393;53.556;49.216;2023-08-07T06:17:08;1.20;;;1.10;;
67564;SDS011;54393;53.556;49.216;2023-08-07T06:19:35;1.95;;;1.17;;
67564;SDS011;54393;53.556;49.216;2023-08-07T06:22:01;2.90;;;1.40;;
67564;SDS011;54393;53.556;49.216;2023-08-07T06:24:28;3.87;;;1.23;;
67564;SDS011;54393;53.556;49.216;2023-08-07T06:26:54;1.42;;;1.33;;
67564;SDS011;54393;53.556;49.216;2023-08-07T06:29:21;1.20;;;1.17;;
67564;SDS011;54393;53.556;49.216;2023-08-07T06:31:47;1.30;;;1.20;;
67564;SDS011;54393;53.556;49.216;2023-08-07T06:34:14;1.67;;;1.30;;
67564;SDS011;54393;53.556;49.216;2023-08-07T06:36:40;1.42;;;1.25;;
67564;SDS011;54393;53.556;49.216;2023-08-07T06:39:06;1.98;;;1.40;;
67564;SDS011;54393;53.556;49.216;2023-08-07T06:41:33;1.40;;;1.20;;
67564;SDS011;54393;53.556;49.216;2023-08-07T06:44:00;1.65;;;1.35;;
67564;SDS011;54393;53.556;49.216;2023-08-07T06:46:27;1.80;;;1.35;;
67564;SDS011;54393;53.556;49.216;2023-08-07T06:48:53;2.85;;;1.35;;
67564;SDS011;54393;53.556;49.216;2023-08-07T06:51:20;2.20;;;1.65;;
67564;SDS011;54393;53.556;49.216;2023-08-07T06:53:46;1.30;;;1.20;;
67564;SDS011;54393;53.556;49.216;2023-08-07T06:56:13;1.45;;;1.35;;
67564;SDS011;54393;53.556;49.216;2023-08-07T06:58:39;1.20;;;1.10;;
67564;SDS011;54393;53.556;49.216;2023-08-07T07:01:06;1.70;;;1.45;;
67564;SDS011;54393;53.556;49.216;2023-08-07T07:03:32;1.75;;;1.65;;
67564;SDS011;54393;53.556;49.216;2023-08-07T07:05:59;1.77;;;1.10;;
67564;SDS011;54393;53.556;49.216;2023-08-07T07:08:25;1.80;;;1.27;;
67564;SDS011;54393;53.556;49.216;2023-08-07T07:10:52;1.77;;;1.52;;
67564;SDS011;54393;53.556;49.216;2023-08-07T07:13:18;2.12;;;1.45;;
67564;SDS011;54393;53.556;49.216;2023-08-07T07:15:45;1.67;;;1.10;;
67564;SDS011;54393;53.556;49.216;2023-08-07T07:18:11;3.78;;;1.50;;
67564;SDS011;54393;53.556;49.216;2023-08-07T07:20:38;1.77;;;1.23;;
67564;SDS011;54393;53.556;49.216;2023-08-07T07:23:05;3.45;;;1.50;;
67564;SDS011;54393;53.556;49.216;2023-08-07T07:25:31;1.60;;;1.37;;
67564;SDS011;54393;53.556;49.216;2023-08-07T07:27:57;4.43;;;1.30;;
67564;SDS011;54393;53.556;49.216;2023-08-07T07:30:24;4.95;;;1.73;;
67564;SDS011;54393;53.556;49.216;2023-08-07T07:32:50;3.00;;;1.60;;
67564;SDS011;54393;53.556;49.216;2023-08-07T07:35:17;5.10;;;1.37;;
67564;SDS011;54393;53.556;49.216;2023-08-07T07:37:43;1.65;;;1.50;;
67564;SDS011;54393;53.556;49.216;2023-08-07T07:40:10;2.10;;;1.52;;
67564;SDS011;54393;53.556;49.216;2023-08-07T07:42:37;2.30;;;1.17;;
67564;SDS011;54393;53.556;49.216;2023-08-07T07:45:03;3.62;;;1.40;;
67564;SDS011;54393;53.556;49.216;2023-08-07T07:47:30;5.68;;;1.40;;
67564;SDS011;54393;53.556;49.216;2023-08-07T07:50:07;3.72;;;1.42;;
67564;SDS011;54393;53.556;49.216;2023-08-07T07:52:34;3.25;;;1.40;;
67564;SDS011;54393;53.556;49.216;2023-08-07T07:55:00;2.25;;;1.50;;
67564;SDS011;54393;53.556;49.216;2023-08-07T07:57:27;3.92;;;1.40;;
67564;SDS011;54393;53.556;49.216;2023-08-07T07:59:53;4.28;;;1.40;;
67564;SDS011;54393;53.556;49.216;2023-08-07T08:02:21;2.25;;;1.42;;
67564;SDS011;54393;53.556;49.216;2023-08-07T08:04:50;1.60;;;1.50;;
67564;SDS011;54393;53.556;49.216;2023-08-07T08:07:16;4.30;;;1.70;;
67564;SDS011;54393;53.556;49.216;2023-08-07T08:09:43;3.42;;;1.30;;
67564;SDS011;54393;53.556;49.216;2023-08-07T08:12:10;4.87;;;1.67;;
67564;SDS011;54393;53.556;49.216;2023-08-07T08:14:36;5.25;;;1.65;;
67564;SDS011;54393;53.556;49.216;2023-08-07T08:17:03;2.97;;;1.60;;
67564;SDS011;54393;53.556;49.216;2023-08-07T08:19:30;2.97;;;1.55;;
67564;SDS011;54393;53.556;49.216;2023-08-07T08:21:56;4.95;;;1.75;;
67564;SDS011;54393;53.556;49.216;2023-08-07T08:24:22;3.65;;;1.20;;
67564;SDS011;54393;53.556;49.216;2023-08-07T08:26:49;1.65;;;1.55;;
67564;SDS011;54393;53.556;49.216;2023-08-07T08:29:15;3.45;;;1.45;;
67564;SDS011;54393;53.556;49.216;2023-08-07T08:31:42;2.05;;;1.85;;
67564;SDS011;54393;53.556;49.216;2023-08-07T08:34:08;5.32;;;1.30;;
67564;SDS011;54393;53.556;49.216;2023-08-07T08:36:35;5.18;;;1.40;;
67564;SDS011;54393;53.556;49.216;2023-08-07T08:39:01;3.00;;;1.50;;
67564;SDS011;54393;53.556;49.216;2023-08-07T08:41:28;6.15;;;2.10;;
67564;SDS011;54393;53.556;49.216;2023-08-07T08:43:54;5.25;;;1.92;;
67564;SDS011;54393;53.556;49.216;2023-08-07T08:46:21;2.67;;;1.30;;
67564;SDS011;54393;53.556;49.216;2023-08-07T08:48:51;3.33;;;1.70;;
67564;SDS011;54393;53.556;49.216;2023-08-07T08:51:19;1.67;;;1.15;;
67564;SDS011;54393;53.556;49.216;2023-08-07T08:53:47;4.53;;;1.52;;
67564;SDS011;54393;53.556;49.216;2023-08-07T08:56:15;3.50;;;1.98;;
67564;SDS011;54393;53.556;49.216;2023-08-07T08:58:42;4.53;;;1.50;;
67564;SDS011;54393;53.556;49.216;2023-08-07T09:01:08;5.50;;;1.37;;
67564;SDS011;54393;53.556;49.216;2023-08-07T09:03:36;3.00;;;1.35;;
67564;SDS011;54393;53.556;49.216;2023-08-07T09:06:02;4.78;;;1.98;;
67564;SDS011;54393;53.556;49.216;2023-08-07T09:08:31;2.35;;;1.35;;
67564;SDS011;54393;53.556;49.216;2023-08-07T09:10:58;6.47;;;1.92;;
67564;SDS011;54393;53.556;49.216;2023-08-07T09:13:26;10.27;;;2.28;;
67564;SDS011;54393;53.556;49.216;2023-08-07T09:15:53;10.93;;;2.12;;
67564;SDS011;54393;53.556;49.216;2023-08-07T09:18:21;7.65;;;2.20;;
67564;SDS011;54393;53.556;49.216;2023-08-07T09:20:47;6.55;;;2.15;;
67564;SDS011;54393;53.556;49.216;2023-08-07T09:23:15;5.50;;;2.12;;
67564;SDS011;54393;53.556;49.216;2023-08-07T09:25:44;13.32;;;2.42;;
67564;SDS011;54393;53.556;49.216;2023-08-07T09:28:11;13.68;;;2.53;;
67564;SDS011;54393;53.556;49.216;2023-08-07T09:30:37;8.55;;;2.62;;
67564;SDS011;54393;53.556;49.216;2023-08-07T09:33:04;9.95;;;2.65;;
67564;SDS011;54393;53.556;49.216;2023-08-07T09:35:31;12.18;;;2.60;;
67564;SDS011;54393;53.556;49.216;2023-08-07T09:37:58;7.53;;;2.42;;
67564;SDS011;54393;53.556;49.216;2023-08-07T09:40:25;14.15;;;3.20;;
67564;SDS011;54393;53.556;49.216;2023-08-07T09:42:54;8.68;;;2.33;;
67564;SDS011;54393;53.556;49.216;2023-08-07T09:47:57;13.85;;;2.95;;
67564;SDS011;54393;53.556;49.216;2023-08-07T09:50:34;11.30;;;2.37;;
67564;SDS011;54393;53.556;49.216;2023-08-07T09:53:00;10.25;;;2.85;;
67564;SDS011;54393;53.556;49.216;2023-08-07T09:55:27;10.30;;;2.62;;
67564;SDS011;54393;53.556;49.216;2023-08-07T09:57:53;11.52;;;2.70;;
67564;SDS011;54393;53.556;49.216;2023-08-07T10:00:20;11.60;;;2.85;;
67564;SDS011;54393;53.556;49.216;2023-08-07T10:02:48;8.60;;;2.55;;
67564;SDS011;54393;53.556;49.216;2023-08-07T10:05:16;15.13;;;3.42;;
67564;SDS011;54393;53.556;49.216;2023-08-07T10:07:42;11.27;;;2.70;;
67564;SDS011;54393;53.556;49.216;2023-08-07T10:10:09;12.70;;;2.92;;
67564;SDS011;54393;53.556;49.216;2023-08-07T10:12:37;10.30;;;2.58;;
67564;SDS011;54393;53.556;49.216;2023-08-07T10:15:04;10.40;;;2.95;;
67564;SDS011;54393;53.556;49.216;2023-08-07T10:17:31;11.88;;;2.87;;
67564;SDS011;54393;53.556;49.216;2023-08-07T10:19:58;10.63;;;2.90;;
67564;SDS011;54393;53.556;49.216;2023-08-07T10:22:25;11.70;;;2.97;;
67564;SDS011;54393;53.556;49.216;2023-08-07T10:24:53;11.18;;;3.05;;
67564;SDS011;54393;53.556;49.216;2023-08-07T10:27:20;15.38;;;3.20;;
67564;SDS011;54393;53.556;49.216;2023-08-07T10:29:48;10.02;;;3.22;;
67564;SDS011;54393;53.556;49.216;2023-08-07T10:32:17;11.70;;;3.10;;
67564;SDS011;54393;53.556;49.216;2023-08-07T10:34:52;11.65;;;2.80;;
67564;SDS011;54393;53.556;49.216;2023-08-07T10:40:08;11.02;;;2.70;;
67564;SDS011;54393;53.556;49.216;2023-08-07T10:45:26;13.23;;;2.58;;
67564;SDS011;54393;53.556;49.216;2023-08-07T10:48:12;10.43;;;2.70;;
67564;SDS011;54393;53.556;49.216;2023-08-07T10:53:32;9.48;;;2.62;;
67564;SDS011;54393;53.556;49.216;2023-08-07T10:56:04;8.05;;;2.50;;
67564;SDS011;54393;53.556;49.216;2023-08-07T10:58:33;10.30;;;2.60;;
67564;SDS011;54393;53.556;49.216;2023-08-07T11:03:55;12.65;;;3.22;;
67564;SDS011;54393;53.556;49.216;2023-08-07T11:06:23;8.90;;;2.30;;
67564;SDS011;54393;53.556;49.216;2023-08-07T11:08:51;16.60;;;3.45;;
67564;SDS011;54393;53.556;49.216;2023-08-07T11:11:18;12.45;;;3.00;;
67564;SDS011;54393;53.556;49.216;2023-08-07T11:13:45;10.90;;;2.70;;
67564;SDS011;54393;53.556;49.216;2023-08-07T11:16:11;10.60;;;2.97;;
67564;SDS011;54393;53.556;49.216;2023-08-07T11:18:38;10.48;;;2.85;;
67564;SDS011;54393;53.556;49.216;2023-08-07T11:21:10;10.88;;;2.60;;
67564;SDS011;54393;53.556;49.216;2023-08-07T11:23:37;15.18;;;3.50;;
67564;SDS011;54393;53.556;49.216;2023-08-07T11:26:04;8.07;;;3.20;;
67564;SDS011;54393;53.556;49.216;2023-08-07T11:28:31;8.00;;;2.92;;
67564;SDS011;54393;53.556;49.216;2023-08-07T11:30:58;11.38;;;3.20;;
67564;SDS011;54393;53.556;49.216;2023-08-07T11:33:25;11.38;;;2.80;;
67564;SDS011;54393;53.556;49.216;2023-08-07T11:35:52;6.55;;;2.58;;
67564;SDS011;54393;53.556;49.216;2023-08-07T11:38:38;8.63;;;2.90;;
67564;SDS011;54393;53.556;49.216;2023-08-07T11:41:08;12.60;;;2.70;;
67564;SDS011;54393;53.556;49.216;2023-08-07T11:43:38;9.00;;;2.53;;
67564;SDS011;54393;53.556;49.216;2023-08-07T11:46:06;10.38;;;3.00;;
67564;SDS011;54393;53.556;49.216;2023-08-07T11:48:34;9.85;;;2.55;;
67564;SDS011;54393;53.556;49.216;2023-08-07T11:51:02;11.32;;;2.97;;
67564;SDS011;54393;53.556;49.216;2023-08-07T11:53:30;6.75;;;2.78;;
67564;SDS011;54393;53.556;49.216;2023-08-07T11:56:01;14.00;;;3.35;;
67564;SDS011;54393;53.556;49.216;2023-08-07T11:58:37;7.68;;;2.47;;
67564;SDS011;54393;53.556;49.216;2023-08-07T12:01:14;10.43;;;2.58;;
67564;SDS011;54393;53.556;49.216;2023-08-07T12:03:43;6.12;;;2.42;;
67564;SDS011;54393;53.556;49.216;2023-08-07T12:06:16;7.40;;;2.35;;
67564;SDS011;54393;53.556;49.216;2023-08-07T12:08:43;11.52;;;2.90;;
67564;SDS011;54393;53.556;49.216;2023-08-07T12:11:10;8.70;;;2.60;;
67564;SDS011;54393;53.556;49.216;2023-08-07T12:13:41;6.20;;;2.58;;
67564;SDS011;54393;53.556;49.216;2023-08-07T12:16:08;8.15;;;2.65;;
67564;SDS011;54393;53.556;49.216;2023-08-07T12:18:36;8.35;;;2.58;;
67564;SDS011;54393;53.556;49.216;2023-08-07T12:21:04;11.18;;;2.90;;
67564;SDS011;54393;53.556;49.216;2023-08-07T12:23:33;7.47;;;2.50;;
67564;SDS011;54393;53.556;49.216;2023-08-07T12:26:00;8.45;;;2.40;;
67564;SDS011;54393;53.556;49.216;2023-08-07T12:28:27;6.43;;;2.33;;
67564;SDS011;54393;53.556;49.216;2023-08-07T12:30:54;7.72;;;2.37;;
67564;SDS011;54393;53.556;49.216;2023-08-07T12:33:21;6.10;;;2.15;;
67564;SDS011;54393;53.556;49.216;2023-08-07T12:35:48;4.87;;;2.37;;
67564;SDS011;54393;53.556;49.216;2023-08-07T12:38:14;11.02;;;2.47;;
67564;SDS011;54393;53.556;49.216;2023-08-07T12:40:42;7.70;;;2.97;;
67564;SDS011;54393;53.556;49.216;2023-08-07T12:43:09;8.68;;;2.42;;
67564;SDS011;54393;53.556;49.216;2023-08-07T12:45:35;6.75;;;2.83;;
67564;SDS011;54393;53.556;49.216;2023-08-07T12:48:02;5.45;;;2.30;;
67564;SDS011;54393;53.556;49.216;2023-08-07T12:50:29;7.90;;;2.25;;
67564;SDS011;54393;53.556;49.216;2023-08-07T12:52:56;8.15;;;2.60;;
67564;SDS011;54393;53.556;49.216;2023-08-07T12:55:23;7.87;;;2.20;;
67564;SDS011;54393;53.556;49.216;2023-08-07T12:57:52;7.53;;;2.25;;
67564;SDS011;54393;53.556;49.216;2023-08-07T13:00:19;6.80;;;2.60;;
67564;SDS011;54393;53.556;49.216;2023-08-07T13:02:46;5.60;;;1.85;;
67564;SDS011;54393;53.556;49.216;2023-08-07T13:05:13;6.78;;;2.00;;
67564;SDS011;54393;53.556;49.216;2023-08-07T13:07:42;8.43;;;2.22;;
67564;SDS011;54393;53.556;49.216;2023-08-07T13:10:10;7.50;;;2.15;;
67564;SDS011;54393;53.556;49.216;2023-08-07T13:12:38;7.65;;;2.28;;
67564;SDS011;54393;53.556;49.216;2023-08-07T13:15:06;3.53;;;1.73;;
67564;SDS011;54393;53.556;49.216;2023-08-07T13:17:34;8.25;;;2.40;;
67564;SDS011;54393;53.556;49.216;2023-08-07T13:20:02;3.45;;;1.92;;
67564;SDS011;54393;53.556;49.216;2023-08-07T13:22:39;4.55;;;1.67;;
67564;SDS011;54393;53.556;49.216;2023-08-07T13:25:06;4.87;;;2.10;;
67564;SDS011;54393;53.556;49.216;2023-08-07T13:27:34;3.90;;;1.83;;
67564;SDS011;54393;53.556;49.216;2023-08-07T13:30:01;6.78;;;2.12;;
67564;SDS011;54393;53.556;49.216;2023-08-07T13:32:28;4.30;;;2.10;;
67564;SDS011;54393;53.556;49.216;2023-08-07T13:34:55;5.37;;;2.25;;
67564;SDS011;54393;53.556;49.216;2023-08-07T13:37:22;4.97;;;1.70;;
67564;SDS011;54393;53.556;49.216;2023-08-07T13:39:48;4.90;;;1.80;;
67564;SDS011;54393;53.556;49.216;2023-08-07T13:42:17;6.53;;;1.87;;
67564;SDS011;54393;53.556;49.216;2023-08-07T13:44:47;4.60;;;1.73;;
67564;SDS011;54393;53.556;49.216;2023-08-07T13:47:14;5.87;;;1.98;;
67564;SDS011;54393;53.556;49.216;2023-08-07T13:49:43;3.58;;;2.00;;
67564;SDS011;54393;53.556;49.216;2023-08-07T13:52:09;2.40;;;1.60;;
67564;SDS011;54393;53.556;49.216;2023-08-07T13:54:36;5.43;;;1.77;;
67564;SDS011;54393;53.556;49.216;2023-08-07T13:57:02;5.28;;;1.75;;
67564;SDS011;54393;53.556;49.216;2023-08-07T13:59:29;4.18;;;1.50;;
67564;SDS011;54393;53.556;49.216;2023-08-07T14:01:56;3.45;;;1.50;;
67564;SDS011;54393;53.556;49.216;2023-08-07T14:04:23;2.65;;;1.65;;
67564;SDS011;54393;53.556;49.216;2023-08-07T14:06:49;4.55;;;1.67;;
67564;SDS011;54393;53.556;49.216;2023-08-07T14:09:16;3.62;;;1.52;;
67564;SDS011;54393;53.556;49.216;2023-08-07T14:11:44;2.37;;;1.55;;
67564;SDS011;54393;53.556;49.216;2023-08-07T14:14:10;6.12;;;1.75;;
67564;SDS011;54393;53.556;49.216;2023-08-07T14:16:36;4.43;;;1.70;;
67564;SDS011;54393;53.556;49.216;2023-08-07T14:19:03;3.47;;;1.70;;
67564;SDS011;54393;53.556;49.216;2023-08-07T14:21:29;4.43;;;1.67;;
67564;SDS011;54393;53.556;49.216;2023-08-07T14:23:56;2.15;;;1.30;;
67564;SDS011;54393;53.556;49.216;2023-08-07T14:26:22;3.87;;;1.73;;
67564;SDS011;54393;53.556;49.216;2023-08-07T14:28:49;2.67;;;1.42;;
67564;SDS011;54393;53.556;49.216;2023-08-07T14:31:15;4.22;;;1.35;;
67564;SDS011;54393;53.556;49.216;2023-08-07T14:33:42;2.75;;;1.55;;
67564;SDS011;54393;53.556;49.216;2023-08-07T14:36:09;2.47;;;1.40;;
67564;SDS011;54393;53.556;49.216;2023-08-07T14:38:35;2.58;;;1.20;;
67564;SDS011;54393;53.556;49.216;2023-08-07T14:41:02;2.42;;;1.40;;
67564;SDS011;54393;53.556;49.216;2023-08-07T14:43:29;2.47;;;1.40;;
67564;SDS011;54393;53.556;49.216;2023-08-07T14:45:56;1.80;;;1.20;;
67564;SDS011;54393;53.556;49.216;2023-08-07T14:48:25;2.45;;;1.33;;
67564;SDS011;54393;53.556;49.216;2023-08-07T14:50:52;1.25;;;1.08;;
67564;SDS011;54393;53.556;49.216;2023-08-07T14:53:18;2.70;;;1.25;;
67564;SDS011;54393;53.556;49.216;2023-08-07T14:55:45;2.30;;;1.37;;